arxmliv
arxmliv build tool
 
KWARC group
LaTeXML
About
   
 

Detailed info

Back to Homepage

List of missing_macros

No. Date Filename num_warningnum_errornum_xmargok_xmargnum_xmathok_xmathMissing macros
153201 2013-02-28 22:02:51 /0112/hep-ph.0112211 4720000[{sidewaystable}].
153202 2013-02-28 22:01:48 /0112/hep-ph.0112267 89150000[\fmffreeze, {fmffile}, {fmfgraph*}, \fmf, \fmfleft, \fmflabel, \fmfright].
153203 2013-02-28 22:01:09 /0112/hep-ph.0112269 430000[\makefront].
153204 2013-02-28 22:00:59 /0112/hep-ph.0112250 630000[\includegraphics, \abstracts]; 1 missing file[ws.sty].
153205 2013-02-28 22:00:42 /0112/hep-ph.0112257 2130000[\catchline, \ttbl]; 1 missing file[ws.sty].
153206 2013-02-28 22:00:10 /0112/hep-ph.0112243 260000[\copyrightyear, {theacknowledgments}, \layoutstyle, \classification].
153207 2013-02-28 21:59:25 /0112/hep-ph.0112225 110130000[\bm, \headauthor, \authorii, \authori, \daterec, \authoriii, \addressi, \suppl, \evidence, \specialhead, \headtitle, \addressii, \addressiii]; 1 missing file[cjpsuplf.cls].
153208 2013-02-28 21:59:16 /0112/hep-ph.0112231 660000[\BCirc, \Text, \Line, \ArrowLine, \Photon, \Gluon].
153209 2013-02-28 21:58:45 /0112/hep-ph.0112234 320000[\abstracts]; 1 missing file[ws.sty].
153210 2013-02-28 21:58:37 /0112/hep-ph.0112222 4710000[\theappendix].
153211 2013-02-28 21:58:15 /0112/hep-ph.0112228 161230000[\N, \bigphotons, \pmidx, \seglength, \pbacky, \pbackx, \pmidy, \pfrontx, \SE, \E, \gaplength, \fermion, \pfronty, \REG, \drawline, \THICKLINES, \NW, \drawarrow, \ATBASE, \ATTIP, \scalar, \NE]; 1 missing file[feynman].
153212 2013-02-28 21:58:07 /0112/hep-ph.0112221 1030000[\includegraphics, \catchline]; 1 missing file[ws.sty].
153213 2013-02-28 21:57:59 /0112/hep-ph.0112159 192240000[\Oval, \C, \CBox, \Curve, \Text, \Vertex, \CCirc, \SetScale, \Green, \setpapersize, \SetOffset, \Purple, \LongArrowArc, \DashLine, \Red, \BCirc, \Blue, \Line, \SetColor, \LongArrowArcn, \SetWidth, \DashCurve, \LongArrow, \setmargins].
153214 2013-02-28 21:57:49 /0112/hep-ph.0112223 2100000[{references}, \titlematter]; 1 missing file[menuproc.sty].
153215 2013-02-28 21:57:01 /0112/hep-ph.0112216 13110000[\Pep, \Pagngt, \Pgngm, \Pgne, \Pagne, \Pagngm, \Pp, \Pgngt, \Pn].
153216 2013-02-28 21:56:42 /0112/hep-ph.0112203 1440000[\Text, \ArrowLine, \DashArrowArc, \DashLine].
153217 2013-02-28 21:56:15 /0112/hep-ph.0112177 3740000[\Text, \DashCArc, \CArc, \DashLine].
153218 2013-02-28 21:54:52 /0112/hep-ph.0112173 020000[\abstracts]; 1 missing file[ws.sty].
153219 2013-02-28 21:54:39 /0112/hep-ph.0112176 1120000[\PRD, \NIM, \epsfig, \Journal, \epsfbox, \abstracts, \PRL, \epsfxsize]; 1 missing file[ws.sty].
153220 2013-02-28 21:54:15 /0112/hep-ph.0112166 110000[\psfrag].
153221 2013-02-28 21:54:14 /0112/hep-ph.0112163 2060000[\Vertex, \Text, \ArrowLine, \Photon, \CArc, \DashArrowLine].
153222 2013-02-28 21:53:51 /0112/hep-ph.0112108 10130000[\rotate].
153223 2013-02-28 21:52:44 /0112/hep-ph.0112131 4240000[{fmffile}, \fmfblob, \fmfcmd, \fmf, \fmflabel, \fmftop, \fmfdot, \fmfpen, {fmfgraph*}, \fmfforce, \fmfleft, \fmfright].
153224 2013-02-28 21:52:34 /0112/hep-ph.0112146 2420000[\catchline]; 1 missing file[ws.sty].
153225 2013-02-28 21:52:29 /0112/hep-ph.0112130 12110000[\figurebox, \epsfxsize]; 1 missing file[ws.sty].
153226 2013-02-28 21:51:56 /0112/hep-ph.0112109 5610000[\theappendix].
153227 2013-02-28 21:51:01 /0112/hep-ph.0112122 090000[\epsfbox, \abstracts, \epsfxsize]; 1 missing file[ws.sty].
153228 2013-02-28 21:50:52 /0112/hep-ph.0112127 1450000[\Vertex, \Line, \ArrowLine, \GlueArc, \Gluon].
153229 2013-02-28 21:50:15 /0112/hep-ph.0112004 167100000[\ArrowArc, \Line, \Photon, \ArrowArcn, \Text, \ArrowLine, \DashCArc, \CArc, \PhotonArc, \DashLine].
153230 2013-02-28 21:49:59 /0112/hep-ph.0112112 050000[\ArrowArc, \ArrowLine, \Text, \Photon, \DashLine].
153231 2013-02-28 21:49:48 /0112/hep-ph.0112118 2710000[\psfrag].
153232 2013-02-28 21:48:48 /0112/hep-ph.0112091 1210000[\makefront].
153233 2013-02-28 21:48:37 /0112/hep-ph.0112092 850000[\abstracts, \epsfig]; 1 missing file[ws.sty].
153234 2013-02-28 21:48:23 /0112/hep-ph.0112077 7740000[\Text, \ArrowLine, \Photon, \DashArrowArcn].
153235 2013-02-28 21:48:08 /0112/hep-ph.0112058 3240000[\copyrightyear, {theacknowledgments}, \layoutstyle, \classification].
153236 2013-02-28 21:47:54 /0112/hep-ph.0112071 050000[\epsfbox, \abstracts, \epsfxsize]; 1 missing file[ws.sty].
153237 2013-02-28 21:47:51 /0112/hep-ph.0112073 020000[\abstracts]; 1 missing file[ws.sty].
153238 2013-02-28 21:47:51 /0112/hep-ph.0112076 030000[\address, \pacs, \keywords].
153239 2013-02-28 21:47:49 /0112/hep-ph.0112062 450000[\copyrightyear, \SetInternalRegister, {theacknowledgments}, \layoutstyle, \classification].
153240 2013-02-28 21:47:31 /0112/hep-ph.0112035 138560000[\theappendix, \supervisor, \degreeyear, \department, \abstractpage, \endabstractpage, \degree]; 1 missing file[urthesis.sty].
153241 2013-02-28 21:47:15 /0112/hep-ph.0112049 880000[\Pep, \Journal, \abstracts, \Pgppm, \epsfig, \Pem, \Pgpz]; 1 missing file[ws.sty].
153242 2013-02-28 21:47:10 /0112/hep-ph.0112050 490000[\abstracts, \epsfig]; 1 missing file[ws.sty].
153243 2013-02-28 21:47:06 /0112/hep-ph.0112051 040000[\epsfbox, \abstracts, \epsfxsize]; 1 missing file[ws.sty].
153244 2013-02-28 21:47:03 /0112/hep-ph.0112055 510000[\layoutstyle].
153245 2013-02-28 21:46:41 /0112/hep-ph.0112008 13840000[\reference, \etal, \headings]; 1 missing file[susspss.sty].
153246 2013-02-28 21:46:36 /0112/hep-ph.0112045 5200000[Align, \Anotfoot, {Authlist}, {2figures}, \Aref, \cmsnote]; 1 missing file[cmspaper.cls].
153247 2013-02-28 21:46:31 /0112/hep-ph.0112043 410000[\abstracts].
153248 2013-02-28 21:46:22 /0112/hep-ph.0112046 7250000[Align, \Anotfoot, \Instfoot, {Authlist}, {2figures}, \Aref, \cmsnote]; 1 missing file[cmspaper.cls].
153249 2013-02-28 21:45:48 /0112/hep-ph.0112020 13100000[\pacs, \psarc, \keywords, \address, \epsfbox, \pspicture, \psline, \rput, \endpspicture, \epsfxsize].
153250 2013-02-28 21:45:33 /0112/hep-ph.0112022 2420000[\psfig]; 1 missing file[psfig].
153251 2013-02-28 21:45:19 /0112/hep-ph.0112019 330000[\abstracts, \psfig]; 1 missing file[ws.sty].
153252 2013-02-28 21:45:12 /0112/hep-ph.0112007 11840000[\BoxedEPSF, \SetRokickiEPSFSpecial, \HideDisplacementBoxes]; 1 missing file[boxedeps.tex].
153253 2013-02-28 21:45:08 /0112/hep-ph.0112024 540000[\theappendix, \address, \pacs, \keywords].
153254 2013-02-28 21:44:39 /0112/hep-ph.0112010 1010000[\@ignoretrue].
153255 2013-02-28 21:44:16 /0112/hep-ph.0112003 4540000[\Line, \Photon].
153256 2013-02-28 21:44:10 /0112/hep-ph.0112014 250000[\evenpagefooter, \oddpagefooter, \institute, {opening}]; 1 missing file[memsait.sty].
153257 2013-02-28 21:43:34 /0112/hep-ph.0112017 230000[\abstracts, \ra]; 1 missing file[ws.sty].
153258 2013-02-28 21:43:16 /0112/hep-ph.0112001 1340000[\Vertex, \Line, \Text, \LongArrow].
153259 2013-02-28 21:42:49 /0112/hep-ph.0112005 18140000[\PLB, \NAT, \EPC, \epsfig, \NPB, \Journal, \epsfbox, \abstracts, \ZPC, \PR, \epsfxsize]; 1 missing file[ws.sty].
153260 2013-02-28 21:42:39 /0112/hep-ph.0112006 040000[\epsfbox, \abstracts, \epsfxsize]; 1 missing file[ws.sty].
153261 2013-02-28 21:42:28 /0112/hep-lat.0112047 570000[\Text, \ArrowLine, \SetWidth, \PhotonArc, {centering}].
153262 2013-02-28 21:41:48 /0112/hep-lat.0112046 480000[\includegraphics, \Journal, \inst, \epsfig, {abstracts}, \institute]; 1 missing file[nic-series.cls].
153263 2013-02-28 21:41:30 /0112/hep-lat.0112036 2030000[\psfig]; 2 missing files[{epsf.sty}, {psfig.sty}].
153264 2013-02-28 21:41:18 /0112/hep-ex.0112028 386170000[\PcgLp, \PgXm, \PsB, \PbgLz, \PsBz, \PBp, \theappendix, \PbgXm, \PdB, \PsDm, \PbgX]; 1 missing file[mypennames.sty].
153265 2013-02-28 21:41:17 /0112/hep-lat.0112035 1260000[\fpsbox, \epsfxsize].
153266 2013-02-28 21:41:04 /0112/hep-lat.0112021 110000[\rotate].
153267 2013-02-28 21:40:18 /0112/hep-lat.0112029 22110000[\psfrag].
153268 2013-02-28 21:39:22 /0112/hep-ex.0112046 730000[\psfig]; 1 missing file[psfig].
153269 2013-02-28 21:39:17 /0112/hep-lat.0112009 510000[\firstfigfalse].
153270 2013-02-28 21:39:16 /0112/hep-lat.0112001 110000[{centering}].
153271 2013-02-28 21:39:09 /0112/hep-lat.0112006 810000[\bezier].
153272 2013-02-28 21:38:49 /0112/hep-ex.0112029 637270000[\ifzeusbst, \xspace, \ifzbstpl, \makezeustitle, \epsfig, \ifzbstnp, \ifzbstepj, \ifzdrftbst]; 1 missing file[./LaTeX/zeus/zeus_paper.cls].
153273 2013-02-28 21:38:37 /0112/hep-ex.0112038 3610000[\layoutstyle].
153274 2013-02-28 21:38:35 /0112/hep-ex.0112044 1410000[\smaller].
153275 2013-02-28 21:38:32 /0112/hep-ex.0112037 1410000[\layoutstyle].
153276 2013-02-28 21:38:22 /0112/hep-ex.0112045 1310000[\smaller].
153277 2013-02-28 21:38:12 /0112/hep-ex.0112026 1450000[\copyrightyear, \SetInternalRegister, {theacknowledgments}, \layoutstyle, \classification].
153278 2013-02-28 21:38:07 /0112/hep-ex.0112025 620000[\layoutstyle, \tablehead].
153279 2013-02-28 21:37:46 /0112/hep-ex.0112019 2430000[\smaller].
153280 2013-02-28 21:37:38 /0112/hep-ex.0112007 100130000[\smaller].
153281 2013-02-28 21:36:53 /0112/hep-ex.0112006 780000[\epsfbox, \abstracts, \epsfxsize]; 1 missing file[ws.sty].
153282 2013-02-28 21:36:43 /0112/hep-ex.0112013 4210000[\smaller].
153283 2013-02-28 21:36:24 /0112/gr-qc.0112076 410000[\TCItag].
153284 2013-02-28 21:36:14 /0112/hep-ex.0112014 050000[\epsfbox, \abstracts, \epsfxsize]; 1 missing file[ws.sty].
153285 2013-02-28 21:35:58 /0112/hep-ex.0112002 630000[\smaller].
153286 2013-02-28 21:35:56 /0112/gr-qc.0112080 710000[\makefront].
153287 2013-02-28 21:35:43 /0112/gr-qc.0112066 29100000[{acknowledgments}, \affil, {keywords}, \articletitle, {chapthebibliography}, \chaptitlerunninghead, \email, \normallatexbib].
153288 2013-02-28 21:35:14 /0112/gr-qc.0112060 11930000[\dottedline, \drawline, \dashline].
153289 2013-02-28 21:34:31 /0112/gr-qc.0112048 610000[\citen].
153290 2013-02-28 21:33:30 /0112/gr-qc.0112039 230000[\email, \Acknow, \heads].
153291 2013-02-28 21:32:13 /0112/gr-qc.0112017 550000[\epsfbox, \epsfxsize].
153292 2013-02-28 21:31:50 /0112/gr-qc.0112013 050000[\extrasenglish, \prettyref, \dateenglish, \captionsenglish]; 1 missing file[pslatex.sty].
153293 2013-02-28 21:31:42 /0112/gr-qc.0112005 010000[\epsfig].
153294 2013-02-28 21:31:34 /0112/gr-qc.0112008 160000[\psfrag, {psfrags}].
153295 2013-02-28 21:31:02 /0112/cs.0112018 10980000[\treeboxone, \parentbox, \shortcite, \texture, \shade, \namecite, \path]; 1 missing file[my-fullname.sty].
153296 2013-02-28 21:30:27 /0112/cs.0112021 2910000[\@highpenalty].
153297 2013-02-28 21:28:58 /0112/cs.0112004 1820000[\epsfile]; 1 missing file[nlprs01.sty].
153298 2013-02-28 21:28:44 /0112/cs.0112005 020000[\epsfile]; 1 missing file[nlprs01.sty].
153299 2013-02-28 21:26:32 /0112/cs.0112003 1620000[\epsfile]; 1 missing file[acl2001.sty].
153300 2013-02-28 21:26:22 /0112/cond-mat.0112493 060000[\surname, \runningauthor, \institute, {opening}, {article}, \keywords].
153301 2013-02-28 21:25:20 /0112/cond-mat.0112485 1550000[\catchline, \epsffile, \pub, \epsfxsize]; 1 missing file[ws.sty].
153302 2013-02-28 21:24:48 /0112/cond-mat.0112492 610000[\delimiter].
153303 2013-02-28 21:23:41 /0112/cond-mat.0112463 750000[\Journal, \epsfbox, \abstracts, \epsfxsize]; 1 missing file[ws.sty].
153304 2013-02-28 21:22:50 /0112/cond-mat.0112452 1180000[\sodauthor, \rauthor, \address, \sodtitle, \dates, \lat, \PACS, \rtitle].
153305 2013-02-28 21:22:36 /0112/cond-mat.0112460 2910000[\rotate].
153306 2013-02-28 21:19:11 /0112/cond-mat.0112404 190000[\PACSes, \ETC, \BY, \IN, \atque, \acknowledgments, \PACSit, \instlist, \from].
153307 2013-02-28 21:19:03 /0112/cond-mat.0112407 110000[\footrulewidth].
153308 2013-02-28 21:18:27 /0112/cond-mat.0112379 23400000[{acknowledgments}, \savefootnote, {keywords}, \articletitle, {chapthebibliography}, \normallatexbib].
153309 2013-02-28 21:18:17 /0112/cond-mat.0112386 10430000[\affil, \articletitle, \booktitle, {chapthebibliography}, \normallatexbib, \chaptitlerunninghead, \acknowledgments]; 1 missing file[KapProc.cls].
153310 2013-02-28 21:18:04 /0112/cond-mat.0112385 510000[\psfrag].
153311 2013-02-28 21:17:37 /0112/cond-mat.0112387 3130000[{fmffile}, \catchline, \fmf, \fmflabel, \fmfv, \pub, \fmfdot, {fmfgraph*}, \fmfleft, \psfrag, \fmfright]; 1 missing file[ws.sty].
153312 2013-02-28 21:15:24 /0112/cond-mat.0112355 030000[\@affiliation].
153313 2013-02-28 21:14:21 /0112/cond-mat.0112335 280000[\address, \pacs, \epsffile, \epsfxsize, \keywords].
153314 2013-02-28 21:14:18 /0112/cond-mat.0112337 260000[\@affiliation, \onefigure].
153315 2013-02-28 21:14:00 /0112/cond-mat.0112320 070000[\@affiliation, \etal].
153316 2013-02-28 21:13:58 /0112/cond-mat.0112319 060000[{tablenotes}, \tnote, {threeparttable}]; 1 missing file[threeparttable.sty].
153317 2013-02-28 21:11:57 /0112/cond-mat.0112277 1230000[\setkeys].
153318 2013-02-28 21:11:24 /0112/cond-mat.0112280 090000[\euro, \pacs, \inst, \rec, \institute, \Date].
153319 2013-02-28 21:10:29 /0112/cond-mat.0112274 210000[\theappendix].
153320 2013-02-28 21:08:42 /0112/cond-mat.0112227 2240000[\TitleOfDossier, \AuteurCourant, \Acknowledgements, \FirstPage, \ComParit, \address, \Journal, \SousRubrique, {Resume}, \TitreDeDossier, \Year, \PIT, \Rubrique, \Volume, \TitreCourant, \keywords, \motscles, {Ftitle}, {Abstract}, \LastPage, \Add, \Present
153321 2013-02-28 21:08:17 /0112/cond-mat.0112160 7080000[{sidewaystable}, \equationsection, {acknowledge}, {rotate}, \listfiles].
153322 2013-02-28 21:07:16 /0112/cond-mat.0112171 330000[\institute, \runningtitle, {opening}].
153323 2013-02-28 21:07:06 /0112/cond-mat.0112195 21110000[\psfig]; 1 missing file[psfig].
153324 2013-02-28 21:06:24 /0112/cond-mat.0112173 420000[{keywords}, \additem].
153325 2013-02-28 21:05:21 /0112/cond-mat.0112157 110000[\a].
153326 2013-02-28 21:04:36 /0112/cond-mat.0112138 860000[\affil, \email, {acknowledgment}, {article}, \keywords]; 1 missing file[cjourps.sty].
153327 2013-02-28 21:03:48 /0112/cond-mat.0112128 020000[\psfrag]; 1 missing file[topcapt.sty].
153328 2013-02-28 21:03:28 /0112/cond-mat.0112114 2570000[\kword, \abst, \inst, \mib, \epsfigure, \epsfxsize]; 1 missing file[orb2001.sty].
153329 2013-02-28 21:03:23 /0112/cond-mat.0112119 090000[\addtocmark, \texture, \@affiliation, \shade, \ellipse, \path].
153330 2013-02-28 21:03:20 /0112/cond-mat.0112117 160000[\frontmatter, \addtocmark, \institute, \ellipse, \blacken, \path]; 1 missing file[ped.cls].
153331 2013-02-28 21:03:13 /0112/cond-mat.0112102 410000[\theappendix].
153332 2013-02-28 21:03:04 /0112/cond-mat.0112096 30230000[\includegraphics, \boldsymbol, \operatorname, \institute, \text, {opening}].
153333 2013-02-28 21:02:50 /0112/cond-mat.0112109 130000[\includegraphics, \abstracts]; 1 missing file[ws.sty].
153334 2013-02-28 21:02:08 /0112/cond-mat.0112079 12130000[\inst, \underset, \citet, {abstracts}, \institute, \text]; 1 missing file[nic-series.cls].
153335 2013-02-28 21:01:39 /0112/cond-mat.0112088 010000[\egtrm].
153336 2013-02-28 21:01:38 /0112/cond-mat.0112077 21440000[{acknowledgments}, \affil, {keywords}, \articletitle, \anxx, {chapthebibliography}, \drawline, \kluwerbib, \email, \normallatexbib, \dashline].
153337 2013-02-28 21:00:44 /0112/cond-mat.0112068 030000[\address, \runninghead]; 1 missing file[jltp.sty].
153338 2013-02-28 21:00:42 /0112/cond-mat.0112069 1330000[\affil, {keywords}, \articletitle, \email, {chapthebibliography}, \normallatexbib].
153339 2013-02-28 21:00:35 /0112/cond-mat.0112058 520000[{keywords}, \affiliation]; 1 missing file[annrevdistribute.cls].
153340 2013-02-28 21:00:04 /0112/cond-mat.0112060 050000[\catchline, \pub]; 1 missing file[ws.sty].
153341 2013-02-28 20:59:50 /0112/cond-mat.0112045 6810000[\pdfcompresslevel].
153342 2013-02-28 20:59:03 /0112/cond-mat.0112036 24170000[\email, \inst, \psfig, \epsfig, {abstracts}, \institute]; 1 missing file[nic-series.cls].
153343 2013-02-28 20:58:23 /0112/cond-mat.0112023 020000[\PACS]; 1 missing file[size11.clo.sty].
153344 2013-02-28 20:57:44 /0112/cond-mat.0112018 560000[\email, \affiliation, \acknowledgements, {ruledtabular}, \onlinecite]; 1 missing file[revtex4b4.cls].
153345 2013-02-28 20:57:22 /0112/astro-ph.0112570 010000[\toctitle].
153346 2013-02-28 20:57:09 /0112/cond-mat.0112008 33180000[{acknowledgments}, \affil, {keywords}, \articletitle, \email, {chapthebibliography}, \normallatexbib].
153347 2013-02-28 20:57:01 /0112/astro-ph.0112561 2650000[\catchline, \psfig, \pub, \keywords]; 1 missing file[ws.sty].
153348 2013-02-28 20:56:54 /0112/astro-ph.0112559 110000[\layoutstyle].
153349 2013-02-28 20:56:42 /0112/astro-ph.0112566 13140000[\psfig]; 1 missing file[psfig].
153350 2013-02-28 20:55:50 /0112/astro-ph.0112556 730000[\theappendix].
153351 2013-02-28 20:55:31 /0112/astro-ph.0112552 010000[\toctitle].
153352 2013-02-28 20:55:30 /0112/astro-ph.0112554 810000[\toctitle].
153353 2013-02-28 20:55:21 /0112/astro-ph.0112555 0210000[\apj, \endpage, \lesssim, \apjl, \runningtitle, \aap, \acknowledgments, \address, \epsfbox, \reference, \arcsec, {references}, \araa, \epsfysize, \aj, \epsscale, \keywords, \beginpage, \plotone, \runningauthor]; 1 missing file[jkas2.sty].
153354 2013-02-28 20:55:18 /0112/astro-ph.0112540 1140000[\affil, \apj, \plotone, \plotfiddle]; 1 missing file[newpasp.sty].
153355 2013-02-28 20:55:14 /0112/astro-ph.0112558 010000[\toctitle].
153356 2013-02-28 20:55:11 /0112/astro-ph.0112541 040000[\inst, \institute, \received]; 1 missing file[mahyd209.sty].
153357 2013-02-28 20:54:51 /0112/astro-ph.0112534 177120000[\apj, \aj, \aaps, \aap, \acknowledgments, \apjs, \mnras, \pasp, \reference, \tablenotemark, {references}]; 1 missing file[apj.sty].
153358 2013-02-28 20:54:35 /0112/astro-ph.0112547 090000[\affil, \apjs, \apj, \aj, \reference, \plotone, {references}, \plottwo]; 1 missing file[newpasp.sty].
153359 2013-02-28 20:53:12 /0112/astro-ph.0112521 5360000[{acknowledgments}, \firstsection, \ls, \ifnfsstwo, \ifnfssone, \ifoldfss, \affiliation, \ns, \psfig]; 1 missing file[cupconf.sty].
153360 2013-02-28 20:52:28 /0112/astro-ph.0112518 040000[\affil, \reference, {references}]; 1 missing file[newpasp.sty].
153361 2013-02-28 20:52:02 /0112/astro-ph.0112515 930000[\psfrag].
153362 2013-02-28 20:51:49 /0112/astro-ph.0112512 510000[\theappendix].
153363 2013-02-28 20:51:28 /0112/astro-ph.0112514 150000[\copyrightyear, \SetInternalRegister, {theacknowledgments}, \layoutstyle]; 1 missing file[{aipcheck.tex}].
153364 2013-02-28 20:51:27 /0112/astro-ph.0112517 210000[\psfrag].
153365 2013-02-28 20:51:18 /0112/astro-ph.0112499 0130000[\affil, \aj, \sun, \apjs, \mnras, \plotone, \reference, \pasp, {references}]; 1 missing file[newpasp.sty].
153366 2013-02-28 20:51:18 /0112/astro-ph.0112501 080000[\affil, \reference, \plotone, {references}, \acknowledgments]; 1 missing file[newpasp.sty].
153367 2013-02-28 20:51:14 /0112/astro-ph.0112502 0100000[\affil, \apj, \aap, \prl, \mnras, \reference, \prd, {references}, \acknowledgements]; 1 missing file[newpasp.sty].
153368 2013-02-28 20:51:04 /0112/astro-ph.0112503 510000[\toctitle].
153369 2013-02-28 20:50:59 /0112/astro-ph.0112504 010000[\toctitle].
153370 2013-02-28 20:50:46 /0112/astro-ph.0112489 1720000[\affil]; 1 missing file[newpasp.sty].
153371 2013-02-28 20:49:24 /0112/astro-ph.0112480 490000[\citeauthoryear, \surname, \institute, {opening}, {article}, \keywords, \newdisplay, \runningauthor, \acknowledgements].
153372 2013-02-28 20:49:17 /0112/astro-ph.0112484 170000[\affil, \reference, {references}, \ga, \acknowledgments, \la]; 1 missing file[newpasp.sty].
153373 2013-02-28 20:49:05 /0112/astro-ph.0112471 2840000[\psfig]; 1 missing file[psfig.tex].
153374 2013-02-28 20:49:03 /0112/astro-ph.0112470 2330000[\includegraphics, {keywords}]; 1 missing file[basi.sty].
153375 2013-02-28 20:48:48 /0112/astro-ph.0112458 010000[\layoutstyle].
153376 2013-02-28 20:48:35 /0112/astro-ph.0112462 2110000[\submitted].
153377 2013-02-28 20:48:29 /0112/astro-ph.0112461 0130000[\affil, \apj, \aj, \aaps, \plotfiddle, \aap, \apjs, \mnras, \reference, {references}, \araa]; 1 missing file[paspconf.sty].
153378 2013-02-28 20:48:15 /0112/astro-ph.0112451 010000[Align].
153379 2013-02-28 20:47:41 /0112/astro-ph.0112453 130000[\inst, \institute, \keywords]; 1 missing file[VisionStyle.cls].
153380 2013-02-28 20:47:36 /0112/astro-ph.0112437 030000[\journalinfo, \submitted]; 1 missing file[apjfonts.sty].
153381 2013-02-28 20:47:25 /0112/astro-ph.0112440 010000[\theappendix].
153382 2013-02-28 20:47:17 /0112/astro-ph.0112429 020000[\jupiter, \earth].
153383 2013-02-28 20:46:38 /0112/astro-ph.0112444 0130000[\arcmin, \affil, \apjs, \reference, \arcsec, {references}, \plotfiddle, \aap]; 1 missing file[newpasp.sty].
153384 2013-02-28 20:46:33 /0112/astro-ph.0112427 210000[\toctitle].
153385 2013-02-28 20:46:19 /0112/astro-ph.0112432 320000[\psfig]; 1 missing file[psfig.tex].
153386 2013-02-28 20:46:14 /0112/astro-ph.0112430 080000[\arcmin, \affil, \arcsec, {references}, \plotfiddle, \aap]; 1 missing file[newpasp.sty].
153387 2013-02-28 20:45:58 /0112/astro-ph.0112417 060000[\AuthorIndex, \BookTitle, \makeauthorindex, \AuthorContents, \CopyRight]; 1 missing file[observe.sty].
153388 2013-02-28 20:45:58 /0112/astro-ph.0112435 060000[\affil, \mnras, \apj, \aaps, {references}]; 1 missing file[newpasp.sty].
153389 2013-02-28 20:45:52 /0112/astro-ph.0112420 010000[\submitted].
153390 2013-02-28 20:45:50 /0112/astro-ph.0112418 060000[\affil, \reference, {references}, \plotfiddle, \acknowledgments]; 1 missing file[newpasp.sty].
153391 2013-02-28 20:45:45 /0112/astro-ph.0112421 080000[\surname, \institute, {opening}, {article}, \keywords, \newdisplay, \runningauthor, \acknowledgements].
153392 2013-02-28 20:45:41 /0112/astro-ph.0112423 010000[\toctitle].
153393 2013-02-28 20:45:23 /0112/astro-ph.0112426 050000[\affil, \arcsec, {references}, \plotfiddle]; 1 missing file[newpasp.sty].
153394 2013-02-28 20:45:08 /0112/astro-ph.0112409 370000[\affil, \apjs, \apj, \plotone, \ga, \plottwo]; 1 missing file[newpasp.sty].
153395 2013-02-28 20:45:00 /0112/astro-ph.0112411 1100000[\affil, \apj, \keywords, \altaffilmark, \mnras, \astap, \reference, \altaffiltext, {references}]; 1 missing file[iau185.sty].
153396 2013-02-28 20:44:14 /0112/astro-ph.0112399 080000[\surname, \institute, {opening}, {article}, \keywords, \newdisplay, \theendnotes, \runningauthor].
153397 2013-02-28 20:43:36 /0112/astro-ph.0112406 020000[Align, \+].
153398 2013-02-28 20:43:08 /0112/astro-ph.0112391 130000[{theacknowledgments}, \layoutstyle]; 1 missing file[{aipcheck.tex}].
153399 2013-02-28 20:42:54 /0112/astro-ph.0112393 070000[\affil, \mnras, \apj, \reference, {references}, \aap]; 1 missing file[newpasp.sty].
153400 2013-02-28 20:42:43 /0112/astro-ph.0112395 0140000[\abbrev, \surname, \institute, {opening}, {article}, \lsim, \email, \abbreviations, \runningauthor, \gsim, \nomen, \acknowledgements, \nomenclature, \classification].
<<< >>>

[0] [200] [400] [600] [800] [1000] [1200] [1400] [1600] [1800] [2000] [2200] [2400] [2600] [2800] [3000] [3200] [3400] [3600] [3800] [4000] [4200] [4400] [4600] [4800] [5000] [5200] [5400] [5600] [5800] [6000] [6200] [6400] [6600] [6800] [7000] [7200] [7400] [7600] [7800] [8000] [8200] [8400] [8600] [8800] [9000] [9200] [9400] [9600] [9800] [10000] [10200] [10400] [10600] [10800] [11000] [11200] [11400] [11600] [11800] [12000] [12200] [12400] [12600] [12800] [13000] [13200] [13400] [13600] [13800] [14000] [14200] [14400] [14600] [14800] [15000] [15200] [15400] [15600] [15800] [16000] [16200] [16400] [16600] [16800] [17000] [17200] [17400] [17600] [17800] [18000] [18200] [18400] [18600] [18800] [19000] [19200] [19400] [19600] [19800] [20000] [20200] [20400] [20600] [20800] [21000] [21200] [21400] [21600] [21800] [22000] [22200] [22400] [22600] [22800] [23000] [23200] [23400] [23600] [23800] [24000] [24200] [24400] [24600] [24800] [25000] [25200] [25400] [25600] [25800] [26000] [26200] [26400] [26600] [26800] [27000] [27200] [27400] [27600] [27800] [28000] [28200] [28400] [28600] [28800] [29000] [29200] [29400] [29600] [29800] [30000] [30200] [30400] [30600] [30800] [31000] [31200] [31400] [31600] [31800] [32000] [32200] [32400] [32600] [32800] [33000] [33200] [33400] [33600] [33800] [34000] [34200] [34400] [34600] [34800] [35000] [35200] [35400] [35600] [35800] [36000] [36200] [36400] [36600] [36800] [37000] [37200] [37400] [37600] [37800] [38000] [38200] [38400] [38600] [38800] [39000] [39200] [39400] [39600] [39800] [40000] [40200] [40400] [40600] [40800] [41000] [41200] [41400] [41600] [41800] [42000] [42200] [42400] [42600] [42800] [43000] [43200] [43400] [43600] [43800] [44000] [44200] [44400] [44600] [44800] [45000] [45200] [45400] [45600] [45800] [46000] [46200] [46400] [46600] [46800] [47000] [47200] [47400] [47600] [47800] [48000] [48200] [48400] [48600] [48800] [49000] [49200] [49400] [49600] [49800] [50000] [50200] [50400] [50600] [50800] [51000] [51200] [51400] [51600] [51800] [52000] [52200] [52400] [52600] [52800] [53000] [53200] [53400] [53600] [53800] [54000] [54200] [54400] [54600] [54800] [55000] [55200] [55400] [55600] [55800] [56000] [56200] [56400] [56600] [56800] [57000] [57200] [57400] [57600] [57800] [58000] [58200] [58400] [58600] [58800] [59000] [59200] [59400] [59600] [59800] [60000] [60200] [60400] [60600] [60800] [61000] [61200] [61400] [61600] [61800] [62000] [62200] [62400] [62600] [62800] [63000] [63200] [63400] [63600] [63800] [64000] [64200] [64400] [64600] [64800] [65000] [65200] [65400] [65600] [65800] [66000] [66200] [66400] [66600] [66800] [67000] [67200] [67400] [67600] [67800] [68000] [68200] [68400] [68600] [68800] [69000] [69200] [69400] [69600] [69800] [70000] [70200] [70400] [70600] [70800] [71000] [71200] [71400] [71600] [71800] [72000] [72200] [72400] [72600] [72800] [73000] [73200] [73400] [73600] [73800] [74000] [74200] [74400] [74600] [74800] [75000] [75200] [75400] [75600] [75800] [76000] [76200] [76400] [76600] [76800] [77000] [77200] [77400] [77600] [77800] [78000] [78200] [78400] [78600] [78800] [79000] [79200] [79400] [79600] [79800] [80000] [80200] [80400] [80600] [80800] [81000] [81200] [81400] [81600] [81800] [82000] [82200] [82400] [82600] [82800] [83000] [83200] [83400] [83600] [83800] [84000] [84200] [84400] [84600] [84800] [85000] [85200] [85400] [85600] [85800] [86000] [86200] [86400] [86600] [86800] [87000] [87200] [87400] [87600] [87800] [88000] [88200] [88400] [88600] [88800] [89000] [89200] [89400] [89600] [89800] [90000] [90200] [90400] [90600] [90800] [91000] [91200] [91400] [91600] [91800] [92000] [92200] [92400] [92600] [92800] [93000] [93200] [93400] [93600] [93800] [94000] [94200] [94400] [94600] [94800] [95000] [95200] [95400] [95600] [95800] [96000] [96200] [96400] [96600] [96800] [97000] [97200] [97400] [97600] [97800] [98000] [98200] [98400] [98600] [98800] [99000] [99200] [99400] [99600] [99800] [100000] [100200] [100400] [100600] [100800] [101000] [101200] [101400] [101600] [101800] [102000] [102200] [102400] [102600] [102800] [103000] [103200] [103400] [103600] [103800] [104000] [104200] [104400] [104600] [104800] [105000] [105200] [105400] [105600] [105800] [106000] [106200] [106400] [106600] [106800] [107000] [107200] [107400] [107600] [107800] [108000] [108200] [108400] [108600] [108800] [109000] [109200] [109400] [109600] [109800] [110000] [110200] [110400] [110600] [110800] [111000] [111200] [111400] [111600] [111800] [112000] [112200] [112400] [112600] [112800] [113000] [113200] [113400] [113600] [113800] [114000] [114200] [114400] [114600] [114800] [115000] [115200] [115400] [115600] [115800] [116000] [116200] [116400] [116600] [116800] [117000] [117200] [117400] [117600] [117800] [118000] [118200] [118400] [118600] [118800] [119000] [119200] [119400] [119600] [119800] [120000] [120200] [120400] [120600] [120800] [121000] [121200] [121400] [121600] [121800] [122000] [122200] [122400] [122600] [122800] [123000] [123200] [123400] [123600] [123800] [124000] [124200] [124400] [124600] [124800] [125000] [125200] [125400] [125600] [125800] [126000] [126200] [126400] [126600] [126800] [127000] [127200] [127400] [127600] [127800] [128000] [128200] [128400] [128600] [128800] [129000] [129200] [129400] [129600] [129800] [130000] [130200] [130400] [130600] [130800] [131000] [131200] [131400] [131600] [131800] [132000] [132200] [132400] [132600] [132800] [133000] [133200] [133400] [133600] [133800] [134000] [134200] [134400] [134600] [134800] [135000] [135200] [135400] [135600] [135800] [136000] [136200] [136400] [136600] [136800] [137000] [137200] [137400] [137600] [137800] [138000] [138200] [138400] [138600] [138800] [139000] [139200] [139400] [139600] [139800] [140000] [140200] [140400] [140600] [140800] [141000] [141200] [141400] [141600] [141800] [142000] [142200] [142400] [142600] [142800] [143000] [143200] [143400] [143600] [143800] [144000] [144200] [144400] [144600] [144800] [145000] [145200] [145400] [145600] [145800] [146000] [146200] [146400] [146600] [146800] [147000] [147200] [147400] [147600] [147800] [148000] [148200] [148400] [148600] [148800] [149000] [149200] [149400] [149600] [149800] [150000] [150200] [150400] [150600] [150800] [151000] [151200] [151400] [151600] [151800] [152000] [152200] [152400] [152600] [152800] [153000] [153200] [153400] [153600] [153800] [154000] [154200] [154400] [154600] [154800] [155000] [155200] [155400] [155600] [155800] [156000] [156200] [156400] [156600] [156800] [157000] [157200] [157400] [157600] [157800] [158000] [158200] [158400] [158600] [158800] [159000] [159200] [159400] [159600] [159800] [160000] [160200] [160400] [160600] [160800] [161000] [161200] [161400] [161600] [161800] [162000] [162200] [162400] [162600] [162800] [163000] [163200] [163400] [163600] [163800] [164000] [164200] [164400] [164600]
 
  The service has been written by
Heinrich Stamerjohanns